Terminal Aerodrome Forecast
Issued by NWS Charleston, WV

Home | Current Version | Previous Version | Text Only | Print | Product List | Glossary On
Versions: 1 2 3 4 5 6 7 8 9 10 11 12 13 14 15 16 17 18 19 20 21 22 23 24 25 26 27 28 29 30 31
263
FTUS41 KRLX 250234 AAA
TAFCRW
TAF AMD
KCRW 250234Z 2503/2524 VRB03KT P6SM OVC030
     FM250900 VRB03KT 5SM BR BKN080
     FM251000 VRB03KT 2SM BR FEW090
     FM251300 19004KT 5SM BR FEW090
     FM251400 20009G16KT P6SM SCT100=

USA.gov is the U.S. government's official web portal to all federal, state and local government web resources and services.